sensor_id;sensor_type;location;lat;lon;timestamp;pressure;altitude;pressure_sealevel;temperature;humidity
49529;BME280;35423;37.320;-121.762;2023-02-28T00:00:54;99742.44;;;16.02;32.85
49529;BME280;35423;37.320;-121.762;2023-02-28T00:03:26;99737.46;;;15.83;32.49
49529;BME280;35423;37.320;-121.762;2023-02-28T00:05:57;99739.93;;;15.49;32.65
49529;BME280;35423;37.320;-121.762;2023-02-28T00:08:27;99742.29;;;15.34;32.95
49529;BME280;35423;37.320;-121.762;2023-02-28T00:10:51;99749.13;;;14.99;33.57
49529;BME280;35423;37.320;-121.762;2023-02-28T00:13:19;99754.98;;;14.95;34.03
49529;BME280;35423;37.320;-121.762;2023-02-28T00:15:47;99753.18;;;14.77;34.27
49529;BME280;35423;37.320;-121.762;2023-02-28T00:18:27;99747.11;;;14.66;34.44
49529;BME280;35423;37.320;-121.762;2023-02-28T00:20:53;99751.83;;;14.62;34.71
49529;BME280;35423;37.320;-121.762;2023-02-28T00:23:18;99744.93;;;14.60;34.94
49529;BME280;35423;37.320;-121.762;2023-02-28T00:25:55;99755.45;;;14.54;35.04
49529;BME280;35423;37.320;-121.762;2023-02-28T00:28:20;99762.47;;;14.53;35.33
49529;BME280;35423;37.320;-121.762;2023-02-28T00:30:49;99769.36;;;14.68;35.36
49529;BME280;35423;37.320;-121.762;2023-02-28T00:33:26;99772.73;;;14.99;35.55
49529;BME280;35423;37.320;-121.762;2023-02-28T00:38:20;99764.65;;;15.35;34.88
49529;BME280;35423;37.320;-121.762;2023-02-28T00:40:45;99775.18;;;15.43;34.55
49529;BME280;35423;37.320;-121.762;2023-02-28T00:43:11;99779.73;;;15.51;34.32
49529;BME280;35423;37.320;-121.762;2023-02-28T00:45:36;99786.59;;;15.58;34.16
49529;BME280;35423;37.320;-121.762;2023-02-28T00:48:02;99791.03;;;15.30;34.27
49529;BME280;35423;37.320;-121.762;2023-02-28T00:50:29;99803.89;;;15.31;34.13
49529;BME280;35423;37.320;-121.762;2023-02-28T00:52:54;99809.10;;;15.54;34.09
49529;BME280;35423;37.320;-121.762;2023-02-28T00:55:23;99805.95;;;15.76;34.07
49529;BME280;35423;37.320;-121.762;2023-02-28T00:57:52;99801.77;;;15.86;33.28
49529;BME280;35423;37.320;-121.762;2023-02-28T01:00:18;99805.70;;;15.81;32.78
49529;BME280;35423;37.320;-121.762;2023-02-28T01:02:46;99806.91;;;16.05;32.93
49529;BME280;35423;37.320;-121.762;2023-02-28T01:05:13;99805.92;;;15.81;33.35
49529;BME280;35423;37.320;-121.762;2023-02-28T01:07:39;99807.29;;;16.11;33.37
49529;BME280;35423;37.320;-121.762;2023-02-28T01:10:12;99808.52;;;15.90;33.45
49529;BME280;35423;37.320;-121.762;2023-02-28T01:12:37;99805.30;;;15.89;33.40
49529;BME280;35423;37.320;-121.762;2023-02-28T01:15:03;99800.46;;;15.61;33.29
49529;BME280;35423;37.320;-121.762;2023-02-28T01:17:28;99799.70;;;15.54;33.04
49529;BME280;35423;37.320;-121.762;2023-02-28T01:19:55;99809.51;;;15.38;32.74
49529;BME280;35423;37.320;-121.762;2023-02-28T01:22:24;99820.70;;;15.45;33.11
49529;BME280;35423;37.320;-121.762;2023-02-28T01:24:49;99817.64;;;15.52;33.31
49529;BME280;35423;37.320;-121.762;2023-02-28T01:27:16;99817.09;;;15.09;33.53
49529;BME280;35423;37.320;-121.762;2023-02-28T01:29:42;99824.42;;;15.51;33.85
49529;BME280;35423;37.320;-121.762;2023-02-28T01:32:10;99840.67;;;14.99;33.94
49529;BME280;35423;37.320;-121.762;2023-02-28T01:34:40;99830.51;;;15.22;34.13
49529;BME280;35423;37.320;-121.762;2023-02-28T01:37:06;99831.02;;;15.19;34.13
49529;BME280;35423;37.320;-121.762;2023-02-28T01:39:34;99831.07;;;15.16;34.25
49529;BME280;35423;37.320;-121.762;2023-02-28T01:42:04;99824.79;;;15.10;34.20
49529;BME280;35423;37.320;-121.762;2023-02-28T01:46:57;99834.48;;;14.76;34.20
49529;BME280;35423;37.320;-121.762;2023-02-28T01:49:32;99836.40;;;14.89;34.20
49529;BME280;35423;37.320;-121.762;2023-02-28T01:52:00;99836.12;;;14.55;34.41
49529;BME280;35423;37.320;-121.762;2023-02-28T01:54:38;99838.89;;;14.65;34.66
49529;BME280;35423;37.320;-121.762;2023-02-28T01:57:13;99840.85;;;14.55;34.82
49529;BME280;35423;37.320;-121.762;2023-02-28T01:59:38;99838.91;;;14.50;34.77
49529;BME280;35423;37.320;-121.762;2023-02-28T02:01:59;99838.23;;;14.43;34.72
49529;BME280;35423;37.320;-121.762;2023-02-28T02:04:34;99837.61;;;14.32;34.82
49529;BME280;35423;37.320;-121.762;2023-02-28T02:06:54;99840.30;;;14.28;34.99
49529;BME280;35423;37.320;-121.762;2023-02-28T02:09:19;99840.61;;;14.23;35.12
49529;BME280;35423;37.320;-121.762;2023-02-28T02:11:47;99842.11;;;14.17;35.20
49529;BME280;35423;37.320;-121.762;2023-02-28T02:16:52;99845.18;;;14.27;34.68
49529;BME280;35423;37.320;-121.762;2023-02-28T02:26:52;99859.46;;;14.12;34.27
49529;BME280;35423;37.320;-121.762;2023-02-28T02:31:51;99858.95;;;14.37;33.99
49529;BME280;35423;37.320;-121.762;2023-02-28T02:36:33;99871.46;;;14.28;34.49
49529;BME280;35423;37.320;-121.762;2023-02-28T02:39:02;99867.10;;;13.81;34.70
49529;BME280;35423;37.320;-121.762;2023-02-28T02:41:28;99870.73;;;14.11;34.81
49529;BME280;35423;37.320;-121.762;2023-02-28T02:43:53;99869.57;;;14.20;34.87
49529;BME280;35423;37.320;-121.762;2023-02-28T02:46:25;99872.72;;;14.24;34.81
49529;BME280;35423;37.320;-121.762;2023-02-28T02:48:53;99874.45;;;14.06;34.72
49529;BME280;35423;37.320;-121.762;2023-02-28T02:51:20;99874.26;;;14.31;34.67
49529;BME280;35423;37.320;-121.762;2023-02-28T02:53:46;99876.83;;;14.12;34.54
49529;BME280;35423;37.320;-121.762;2023-02-28T02:56:12;99879.92;;;14.16;34.61
49529;BME280;35423;37.320;-121.762;2023-02-28T02:58:40;99888.62;;;14.19;34.74
49529;BME280;35423;37.320;-121.762;2023-02-28T03:01:03;99905.18;;;14.44;34.76
49529;BME280;35423;37.320;-121.762;2023-02-28T03:03:28;99915.38;;;14.17;34.31
49529;BME280;35423;37.320;-121.762;2023-02-28T03:05:54;99904.30;;;13.85;34.79
49529;BME280;35423;37.320;-121.762;2023-02-28T03:08:19;99905.60;;;13.49;35.45
49529;BME280;35423;37.320;-121.762;2023-02-28T03:10:54;99910.71;;;13.02;35.84
49529;BME280;35423;37.320;-121.762;2023-02-28T03:15:47;99915.17;;;12.65;36.35
49529;BME280;35423;37.320;-121.762;2023-02-28T03:18:10;99921.62;;;12.54;36.54
49529;BME280;35423;37.320;-121.762;2023-02-28T03:20:39;99915.74;;;12.72;36.55
49529;BME280;35423;37.320;-121.762;2023-02-28T03:23:10;99929.78;;;12.63;36.60
49529;BME280;35423;37.320;-121.762;2023-02-28T03:25:33;99927.21;;;12.52;36.74
49529;BME280;35423;37.320;-121.762;2023-02-28T03:28:00;99932.60;;;12.49;36.72
49529;BME280;35423;37.320;-121.762;2023-02-28T03:30:38;99940.96;;;12.50;36.79
49529;BME280;35423;37.320;-121.762;2023-02-28T03:32:55;99940.63;;;12.78;36.81
49529;BME280;35423;37.320;-121.762;2023-02-28T03:35:22;99941.06;;;12.79;36.76
49529;BME280;35423;37.320;-121.762;2023-02-28T03:37:45;99939.18;;;12.59;36.55
49529;BME280;35423;37.320;-121.762;2023-02-28T03:40:17;99941.68;;;12.81;36.40
49529;BME280;35423;37.320;-121.762;2023-02-28T03:42:36;99946.57;;;12.55;36.31
49529;BME280;35423;37.320;-121.762;2023-02-28T03:45:04;99949.13;;;12.52;36.31
49529;BME280;35423;37.320;-121.762;2023-02-28T03:47:35;99946.32;;;13.01;36.10
49529;BME280;35423;37.320;-121.762;2023-02-28T03:50:05;99953.97;;;12.52;36.26
49529;BME280;35423;37.320;-121.762;2023-02-28T03:52:33;99955.80;;;12.51;36.26
49529;BME280;35423;37.320;-121.762;2023-02-28T03:55:02;99959.10;;;12.45;36.27
49529;BME280;35423;37.320;-121.762;2023-02-28T03:57:27;99960.42;;;12.50;36.29
49529;BME280;35423;37.320;-121.762;2023-02-28T03:59:56;99964.79;;;12.59;36.43
49529;BME280;35423;37.320;-121.762;2023-02-28T04:02:19;99958.67;;;12.68;36.46
49529;BME280;35423;37.320;-121.762;2023-02-28T04:04:44;99959.65;;;12.64;36.25
49529;BME280;35423;37.320;-121.762;2023-02-28T04:07:13;99959.47;;;12.60;36.14
49529;BME280;35423;37.320;-121.762;2023-02-28T04:09:41;99958.37;;;12.63;36.15
49529;BME280;35423;37.320;-121.762;2023-02-28T04:12:08;99958.85;;;12.36;36.18
49529;BME280;35423;37.320;-121.762;2023-02-28T04:14:34;99956.02;;;12.66;36.23
49529;BME280;35423;37.320;-121.762;2023-02-28T04:17:00;99954.40;;;12.66;36.39
49529;BME280;35423;37.320;-121.762;2023-02-28T04:19:29;99953.71;;;12.59;36.32
49529;BME280;35423;37.320;-121.762;2023-02-28T04:21:57;99957.61;;;12.52;36.32
49529;BME280;35423;37.320;-121.762;2023-02-28T04:24:27;99957.81;;;12.43;36.36
49529;BME280;35423;37.320;-121.762;2023-02-28T04:26:53;99963.07;;;12.53;36.32
49529;BME280;35423;37.320;-121.762;2023-02-28T04:29:22;99965.67;;;12.20;36.40
49529;BME280;35423;37.320;-121.762;2023-02-28T04:31:48;99964.95;;;12.11;36.38
49529;BME280;35423;37.320;-121.762;2023-02-28T04:34:12;99964.53;;;12.53;36.42
49529;BME280;35423;37.320;-121.762;2023-02-28T04:36:43;99964.87;;;12.20;36.37
49529;BME280;35423;37.320;-121.762;2023-02-28T04:39:11;99963.85;;;11.91;36.31
49529;BME280;35423;37.320;-121.762;2023-02-28T04:41:39;99963.39;;;12.34;36.20
49529;BME280;35423;37.320;-121.762;2023-02-28T04:44:05;99963.21;;;11.82;36.17
49529;BME280;35423;37.320;-121.762;2023-02-28T04:46:32;99965.10;;;12.25;36.14
49529;BME280;35423;37.320;-121.762;2023-02-28T04:49:04;99965.02;;;11.96;36.10
49529;BME280;35423;37.320;-121.762;2023-02-28T04:51:37;99968.68;;;12.22;36.11
49529;BME280;35423;37.320;-121.762;2023-02-28T04:54:04;99973.46;;;12.23;36.16
49529;BME280;35423;37.320;-121.762;2023-02-28T04:56:37;99975.73;;;12.27;35.98
49529;BME280;35423;37.320;-121.762;2023-02-28T04:59:02;99969.53;;;12.04;35.81
49529;BME280;35423;37.320;-121.762;2023-02-28T05:01:32;99969.64;;;11.78;35.63
49529;BME280;35423;37.320;-121.762;2023-02-28T05:03:58;99971.82;;;12.17;35.64
49529;BME280;35423;37.320;-121.762;2023-02-28T05:06:27;99969.29;;;11.86;35.66
49529;BME280;35423;37.320;-121.762;2023-02-28T05:08:50;99969.03;;;12.09;35.65
49529;BME280;35423;37.320;-121.762;2023-02-28T05:11:23;99967.21;;;12.05;35.67
49529;BME280;35423;37.320;-121.762;2023-02-28T05:13:42;99975.99;;;11.75;35.68
49529;BME280;35423;37.320;-121.762;2023-02-28T05:16:16;99985.31;;;11.97;35.57
49529;BME280;35423;37.320;-121.762;2023-02-28T05:18:41;99986.22;;;11.99;35.69
49529;BME280;35423;37.320;-121.762;2023-02-28T05:21:12;99987.64;;;11.73;35.58
49529;BME280;35423;37.320;-121.762;2023-02-28T05:23:37;99988.59;;;12.01;35.52
49529;BME280;35423;37.320;-121.762;2023-02-28T05:26:05;99991.13;;;12.04;35.60
49529;BME280;35423;37.320;-121.762;2023-02-28T05:28:37;99992.25;;;11.84;35.56
49529;BME280;35423;37.320;-121.762;2023-02-28T05:30:56;99992.02;;;12.14;35.42
49529;BME280;35423;37.320;-121.762;2023-02-28T05:33:21;99999.87;;;11.81;35.41
49529;BME280;35423;37.320;-121.762;2023-02-28T05:35:49;100003.03;;;12.03;35.47
49529;BME280;35423;37.320;-121.762;2023-02-28T05:38:16;99999.87;;;11.70;35.43
49529;BME280;35423;37.320;-121.762;2023-02-28T05:40:44;99994.24;;;11.95;35.41
49529;BME280;35423;37.320;-121.762;2023-02-28T05:43:12;99995.54;;;11.68;35.45
49529;BME280;35423;37.320;-121.762;2023-02-28T05:45:44;99995.85;;;11.92;35.49
49529;BME280;35423;37.320;-121.762;2023-02-28T05:48:11;99994.26;;;11.63;35.39
49529;BME280;35423;37.320;-121.762;2023-02-28T05:50:37;99993.66;;;11.57;35.52
49529;BME280;35423;37.320;-121.762;2023-02-28T05:53:06;99991.06;;;11.83;35.50
49529;BME280;35423;37.320;-121.762;2023-02-28T05:55:32;99993.41;;;11.85;35.35
49529;BME280;35423;37.320;-121.762;2023-02-28T05:57:58;99994.75;;;11.85;35.49
49529;BME280;35423;37.320;-121.762;2023-02-28T06:00:24;99994.77;;;11.90;35.45
49529;BME280;35423;37.320;-121.762;2023-02-28T06:02:48;99994.82;;;11.93;35.48
49529;BME280;35423;37.320;-121.762;2023-02-28T06:05:17;99992.98;;;11.97;35.52
49529;BME280;35423;37.320;-121.762;2023-02-28T06:07:41;99992.86;;;12.01;35.41
49529;BME280;35423;37.320;-121.762;2023-02-28T06:10:08;99994.30;;;12.02;35.19
49529;BME280;35423;37.320;-121.762;2023-02-28T06:12:31;99999.15;;;11.77;35.12
49529;BME280;35423;37.320;-121.762;2023-02-28T06:14:58;99997.67;;;12.07;34.88
49529;BME280;35423;37.320;-121.762;2023-02-28T06:17:24;99995.48;;;12.08;34.92
49529;BME280;35423;37.320;-121.762;2023-02-28T06:19:49;99999.18;;;12.07;34.88
49529;BME280;35423;37.320;-121.762;2023-02-28T06:22:22;100003.82;;;12.11;34.93
49529;BME280;35423;37.320;-121.762;2023-02-28T06:24:47;99999.65;;;12.11;34.81
49529;BME280;35423;37.320;-121.762;2023-02-28T06:27:17;100000.05;;;12.12;34.59
49529;BME280;35423;37.320;-121.762;2023-02-28T06:29:46;100000.27;;;12.07;34.72
49529;BME280;35423;37.320;-121.762;2023-02-28T06:32:22;99998.86;;;11.85;34.74
49529;BME280;35423;37.320;-121.762;2023-02-28T06:34:43;100000.69;;;12.10;34.66
49529;BME280;35423;37.320;-121.762;2023-02-28T06:37:14;99999.64;;;12.16;34.68
49529;BME280;35423;37.320;-121.762;2023-02-28T06:39:37;99998.26;;;12.24;34.73
49529;BME280;35423;37.320;-121.762;2023-02-28T06:42:05;100000.74;;;11.98;34.55
49529;BME280;35423;37.320;-121.762;2023-02-28T06:44:36;99999.10;;;12.31;34.46
49529;BME280;35423;37.320;-121.762;2023-02-28T06:47:08;100006.25;;;12.58;34.53
49529;BME280;35423;37.320;-121.762;2023-02-28T06:49:34;100007.71;;;12.12;34.48
49529;BME280;35423;37.320;-121.762;2023-02-28T06:52:08;100004.18;;;12.38;34.45
49529;BME280;35423;37.320;-121.762;2023-02-28T06:54:38;100000.72;;;12.48;34.31
49529;BME280;35423;37.320;-121.762;2023-02-28T06:57:03;99997.13;;;12.50;34.14
49529;BME280;35423;37.320;-121.762;2023-02-28T06:59:29;100003.02;;;12.55;34.11
49529;BME280;35423;37.320;-121.762;2023-02-28T07:01:55;100000.62;;;12.55;34.16
49529;BME280;35423;37.320;-121.762;2023-02-28T07:04:22;100003.27;;;12.57;34.16
49529;BME280;35423;37.320;-121.762;2023-02-28T07:06:53;100003.64;;;12.57;34.00
49529;BME280;35423;37.320;-121.762;2023-02-28T07:09:19;100003.32;;;12.57;34.07
49529;BME280;35423;37.320;-121.762;2023-02-28T07:11:54;100002.21;;;12.60;34.09
49529;BME280;35423;37.320;-121.762;2023-02-28T07:14:22;100004.00;;;12.07;34.01
49529;BME280;35423;37.320;-121.762;2023-02-28T07:16:48;100004.53;;;12.10;34.00
49529;BME280;35423;37.320;-121.762;2023-02-28T07:19:15;100007.38;;;12.65;33.85
49529;BME280;35423;37.320;-121.762;2023-02-28T07:21:41;100005.64;;;12.43;33.81
49529;BME280;35423;37.320;-121.762;2023-02-28T07:24:09;100004.56;;;12.22;33.79
49529;BME280;35423;37.320;-121.762;2023-02-28T07:26:36;100009.06;;;12.51;33.79
49529;BME280;35423;37.320;-121.762;2023-02-28T07:29:04;100009.51;;;12.54;33.98
49529;BME280;35423;37.320;-121.762;2023-02-28T07:31:31;100017.03;;;12.84;34.09
49529;BME280;35423;37.320;-121.762;2023-02-28T07:33:57;100033.58;;;12.58;34.26
49529;BME280;35423;37.320;-121.762;2023-02-28T07:36:23;100039.88;;;12.39;34.30
49529;BME280;35423;37.320;-121.762;2023-02-28T07:38:51;100045.39;;;12.61;34.47
49529;BME280;35423;37.320;-121.762;2023-02-28T07:41:19;100058.01;;;12.78;34.66
49529;BME280;35423;37.320;-121.762;2023-02-28T07:43:43;100069.99;;;12.69;34.97
49529;BME280;35423;37.320;-121.762;2023-02-28T07:46:11;100075.14;;;12.66;35.09
49529;BME280;35423;37.320;-121.762;2023-02-28T07:48:35;100077.66;;;12.14;35.24
49529;BME280;35423;37.320;-121.762;2023-02-28T07:51:03;100071.54;;;12.61;35.18
49529;BME280;35423;37.320;-121.762;2023-02-28T07:53:29;100067.24;;;12.23;35.08
49529;BME280;35423;37.320;-121.762;2023-02-28T07:55:56;100060.71;;;12.35;35.03
49529;BME280;35423;37.320;-121.762;2023-02-28T07:58:23;100058.24;;;12.26;35.06
49529;BME280;35423;37.320;-121.762;2023-02-28T08:00:52;100056.61;;;11.69;35.04
49529;BME280;35423;37.320;-121.762;2023-02-28T08:03:22;100054.69;;;12.21;34.84
49529;BME280;35423;37.320;-121.762;2023-02-28T08:05:57;100052.38;;;12.39;35.05
49529;BME280;35423;37.320;-121.762;2023-02-28T08:08:29;100051.57;;;12.16;35.21
49529;BME280;35423;37.320;-121.762;2023-02-28T08:11:00;100045.46;;;12.21;35.26
49529;BME280;35423;37.320;-121.762;2023-02-28T08:13:32;100039.42;;;12.25;35.11
49529;BME280;35423;37.320;-121.762;2023-02-28T08:16:02;100039.62;;;12.25;35.16
49529;BME280;35423;37.320;-121.762;2023-02-28T08:18:30;100036.33;;;12.30;35.26
49529;BME280;35423;37.320;-121.762;2023-02-28T08:20:55;100039.93;;;12.10;35.34
49529;BME280;35423;37.320;-121.762;2023-02-28T08:23:24;100045.76;;;12.43;35.46
49529;BME280;35423;37.320;-121.762;2023-02-28T08:25:54;100048.43;;;12.21;35.53
49529;BME280;35423;37.320;-121.762;2023-02-28T08:28:15;100049.05;;;12.53;35.53
49529;BME280;35423;37.320;-121.762;2023-02-28T08:30:44;100047.35;;;12.30;35.49
49529;BME280;35423;37.320;-121.762;2023-02-28T08:33:09;100047.24;;;12.26;35.36
49529;BME280;35423;37.320;-121.762;2023-02-28T08:35:36;100047.32;;;12.22;35.34
49529;BME280;35423;37.320;-121.762;2023-02-28T08:38:02;100041.45;;;12.46;35.36
49529;BME280;35423;37.320;-121.762;2023-02-28T08:40:30;100040.38;;;12.13;35.41
49529;BME280;35423;37.320;-121.762;2023-02-28T08:42:56;100042.69;;;12.35;35.48
49529;BME280;35423;37.320;-121.762;2023-02-28T08:45:25;100045.18;;;12.36;35.55
49529;BME280;35423;37.320;-121.762;2023-02-28T08:47:51;100049.08;;;12.42;35.63
49529;BME280;35423;37.320;-121.762;2023-02-28T08:50:17;100046.09;;;12.26;35.66
49529;BME280;35423;37.320;-121.762;2023-02-28T08:52:44;100047.79;;;12.54;35.63
49529;BME280;35423;37.320;-121.762;2023-02-28T08:55:11;100046.12;;;12.29;35.59
49529;BME280;35423;37.320;-121.762;2023-02-28T08:57:39;100046.27;;;12.58;35.61
49529;BME280;35423;37.320;-121.762;2023-02-28T09:00:09;100047.35;;;12.28;35.71
49529;BME280;35423;37.320;-121.762;2023-02-28T09:02:36;100043.68;;;12.57;35.74
49529;BME280;35423;37.320;-121.762;2023-02-28T09:05:10;100046.88;;;12.30;35.71
49529;BME280;35423;37.320;-121.762;2023-02-28T09:07:35;100052.93;;;12.31;35.72
49529;BME280;35423;37.320;-121.762;2023-02-28T09:10:07;100053.87;;;12.63;35.77
49529;BME280;35423;37.320;-121.762;2023-02-28T09:12:35;100051.46;;;12.35;35.60
49529;BME280;35423;37.320;-121.762;2023-02-28T09:14:56;100053.51;;;12.57;35.64
49529;BME280;35423;37.320;-121.762;2023-02-28T09:17:25;100055.09;;;12.01;35.66
49529;BME280;35423;37.320;-121.762;2023-02-28T09:19:52;100054.58;;;12.10;35.70
49529;BME280;35423;37.320;-121.762;2023-02-28T09:22:19;100055.36;;;12.31;35.71
49529;BME280;35423;37.320;-121.762;2023-02-28T09:24:48;100053.63;;;12.23;35.71
49529;BME280;35423;37.320;-121.762;2023-02-28T09:27:20;100048.15;;;12.17;35.80
49529;BME280;35423;37.320;-121.762;2023-02-28T09:29:46;100042.27;;;12.12;35.69
49529;BME280;35423;37.320;-121.762;2023-02-28T09:32:11;100042.31;;;12.03;35.66
49529;BME280;35423;37.320;-121.762;2023-02-28T09:34:44;100040.34;;;11.98;35.73
49529;BME280;35423;37.320;-121.762;2023-02-28T09:37:16;100037.41;;;11.99;35.73
49529;BME280;35423;37.320;-121.762;2023-02-28T09:39:39;100034.13;;;12.03;35.71
49529;BME280;35423;37.320;-121.762;2023-02-28T09:42:06;100035.16;;;12.14;35.66
49529;BME280;35423;37.320;-121.762;2023-02-28T09:44:37;100032.34;;;12.17;35.59
49529;BME280;35423;37.320;-121.762;2023-02-28T09:47:10;100030.54;;;12.20;35.60
49529;BME280;35423;37.320;-121.762;2023-02-28T09:49:33;100030.42;;;12.23;35.58
49529;BME280;35423;37.320;-121.762;2023-02-28T09:51:57;100029.57;;;12.25;35.57
49529;BME280;35423;37.320;-121.762;2023-02-28T09:54:22;100029.44;;;12.02;35.62
49529;BME280;35423;37.320;-121.762;2023-02-28T09:56:48;100031.47;;;12.33;35.59
49529;BME280;35423;37.320;-121.762;2023-02-28T09:59:29;100025.61;;;12.35;35.45
49529;BME280;35423;37.320;-121.762;2023-02-28T10:01:54;100021.12;;;12.38;35.45
49529;BME280;35423;37.320;-121.762;2023-02-28T10:04:16;100012.48;;;12.38;35.18
49529;BME280;35423;37.320;-121.762;2023-02-28T10:06:46;100014.56;;;12.18;35.38
49529;BME280;35423;37.320;-121.762;2023-02-28T10:09:15;100013.04;;;12.20;35.24
49529;BME280;35423;37.320;-121.762;2023-02-28T10:11:40;100011.19;;;12.51;35.23
49529;BME280;35423;37.320;-121.762;2023-02-28T10:14:06;100010.97;;;12.25;35.21
49529;BME280;35423;37.320;-121.762;2023-02-28T10:16:35;100010.69;;;12.49;35.22
49529;BME280;35423;37.320;-121.762;2023-02-28T10:19:04;100013.60;;;12.25;35.29
49529;BME280;35423;37.320;-121.762;2023-02-28T10:21:42;100014.05;;;12.62;35.26
49529;BME280;35423;37.320;-121.762;2023-02-28T10:24:04;100007.44;;;12.09;35.40
49529;BME280;35423;37.320;-121.762;2023-02-28T10:26:31;100003.27;;;12.28;35.46
49529;BME280;35423;37.320;-121.762;2023-02-28T10:28:55;99997.00;;;12.24;35.56
49529;BME280;35423;37.320;-121.762;2023-02-28T10:31:22;99994.85;;;12.50;35.64
49529;BME280;35423;37.320;-121.762;2023-02-28T10:33:50;99990.71;;;12.47;35.70
49529;BME280;35423;37.320;-121.762;2023-02-28T10:36:29;99992.75;;;12.48;35.77
49529;BME280;35423;37.320;-121.762;2023-02-28T10:38:54;99991.87;;;12.18;35.87
49529;BME280;35423;37.320;-121.762;2023-02-28T10:41:27;99988.45;;;12.35;35.95
49529;BME280;35423;37.320;-121.762;2023-02-28T10:43:51;99979.94;;;11.97;36.04
49529;BME280;35423;37.320;-121.762;2023-02-28T10:46:19;99976.53;;;12.16;36.11
49529;BME280;35423;37.320;-121.762;2023-02-28T10:48:47;99978.41;;;12.09;36.22
49529;BME280;35423;37.320;-121.762;2023-02-28T10:51:12;99978.70;;;12.05;36.31
49529;BME280;35423;37.320;-121.762;2023-02-28T10:53:44;99974.80;;;11.99;36.41
49529;BME280;35423;37.320;-121.762;2023-02-28T10:56:19;99974.81;;;12.22;36.43
49529;BME280;35423;37.320;-121.762;2023-02-28T10:58:51;99972.17;;;12.03;36.42
49529;BME280;35423;37.320;-121.762;2023-02-28T11:01:16;99968.74;;;12.03;36.41
49529;BME280;35423;37.320;-121.762;2023-02-28T11:03:37;99965.94;;;12.06;36.39
49529;BME280;35423;37.320;-121.762;2023-02-28T11:06:08;99960.04;;;12.07;36.38
49529;BME280;35423;37.320;-121.762;2023-02-28T11:08:30;99958.35;;;12.13;36.33
49529;BME280;35423;37.320;-121.762;2023-02-28T11:10:57;99958.36;;;12.10;36.40
49529;BME280;35423;37.320;-121.762;2023-02-28T11:13:26;99957.40;;;12.35;36.35
49529;BME280;35423;37.320;-121.762;2023-02-28T11:15:53;99959.39;;;12.11;36.40
49529;BME280;35423;37.320;-121.762;2023-02-28T11:18:21;99964.12;;;12.14;36.45
49529;BME280;35423;37.320;-121.762;2023-02-28T11:20:42;99968.43;;;12.19;36.48
49529;BME280;35423;37.320;-121.762;2023-02-28T11:23:13;99973.71;;;12.45;36.37
49529;BME280;35423;37.320;-121.762;2023-02-28T11:25:39;99975.91;;;12.21;36.26
49529;BME280;35423;37.320;-121.762;2023-02-28T11:28:06;99974.09;;;12.21;36.30
49529;BME280;35423;37.320;-121.762;2023-02-28T11:30:34;99972.84;;;12.17;36.40
49529;BME280;35423;37.320;-121.762;2023-02-28T11:32:56;99972.82;;;12.18;36.42
49529;BME280;35423;37.320;-121.762;2023-02-28T11:35:26;99964.85;;;12.21;36.47
49529;BME280;35423;37.320;-121.762;2023-02-28T11:37:46;99964.80;;;12.00;36.50
49529;BME280;35423;37.320;-121.762;2023-02-28T11:40:17;99961.10;;;12.33;36.46
49529;BME280;35423;37.320;-121.762;2023-02-28T11:42:51;99961.30;;;12.37;36.52
49529;BME280;35423;37.320;-121.762;2023-02-28T11:45:21;99959.60;;;12.37;36.46
49529;BME280;35423;37.320;-121.762;2023-02-28T11:47:42;99958.19;;;12.40;36.46
49529;BME280;35423;37.320;-121.762;2023-02-28T11:50:14;99955.14;;;12.40;36.46
49529;BME280;35423;37.320;-121.762;2023-02-28T11:52:36;99953.94;;;12.35;36.51
49529;BME280;35423;37.320;-121.762;2023-02-28T11:55:04;99954.12;;;12.33;36.55
49529;BME280;35423;37.320;-121.762;2023-02-28T11:57:34;99954.45;;;12.28;36.64
49529;BME280;35423;37.320;-121.762;2023-02-28T12:00:04;99953.69;;;12.30;36.66
49529;BME280;35423;37.320;-121.762;2023-02-28T12:02:25;99952.04;;;12.29;36.67
49529;BME280;35423;37.320;-121.762;2023-02-28T12:05:04;99950.66;;;12.24;36.62
49529;BME280;35423;37.320;-121.762;2023-02-28T12:07:18;99954.01;;;12.20;36.54
49529;BME280;35423;37.320;-121.762;2023-02-28T12:09:49;99957.99;;;12.16;36.67
49529;BME280;35423;37.320;-121.762;2023-02-28T12:12:20;99958.63;;;11.89;36.72
49529;BME280;35423;37.320;-121.762;2023-02-28T12:17:18;99961.67;;;12.17;36.60
49529;BME280;35423;37.320;-121.762;2023-02-28T12:19:32;99959.49;;;11.94;36.52
49529;BME280;35423;37.320;-121.762;2023-02-28T12:22:01;99959.08;;;12.44;36.34
49529;BME280;35423;37.320;-121.762;2023-02-28T12:24:30;99961.08;;;12.19;36.24
49529;BME280;35423;37.320;-121.762;2023-02-28T12:26:47;99957.48;;;12.23;36.17
49529;BME280;35423;37.320;-121.762;2023-02-28T12:29:19;99953.29;;;12.17;36.12
49529;BME280;35423;37.320;-121.762;2023-02-28T12:31:40;99949.41;;;11.90;35.97
49529;BME280;35423;37.320;-121.762;2023-02-28T12:34:09;99952.12;;;12.15;36.01
49529;BME280;35423;37.320;-121.762;2023-02-28T12:36:31;99955.16;;;12.31;35.86
49529;BME280;35423;37.320;-121.762;2023-02-28T12:39:00;99953.59;;;11.82;35.72
49529;BME280;35423;37.320;-121.762;2023-02-28T12:41:29;99954.40;;;12.06;35.72
49529;BME280;35423;37.320;-121.762;2023-02-28T12:43:51;99957.72;;;12.07;35.76
49529;BME280;35423;37.320;-121.762;2023-02-28T12:46:17;99955.22;;;12.34;35.55
49529;BME280;35423;37.320;-121.762;2023-02-28T12:48:44;99952.90;;;12.11;35.74
49529;BME280;35423;37.320;-121.762;2023-02-28T12:51:13;99954.84;;;12.14;35.81
49529;BME280;35423;37.320;-121.762;2023-02-28T12:53:41;99956.64;;;12.20;35.67